sensor_id;sensor_type;location;lat;lon;timestamp;P1;durP1;ratioP1;P2;durP2;ratioP2
16189;SDS011;41754;51.498;7.540;2023-12-29T00:01:55;3.30;;;1.30;;
16189;SDS011;41754;51.498;7.540;2023-12-29T00:04:25;3.40;;;1.48;;
16189;SDS011;41754;51.498;7.540;2023-12-29T00:06:53;2.58;;;0.98;;
16189;SDS011;41754;51.498;7.540;2023-12-29T00:09:28;4.25;;;1.38;;
16189;SDS011;41754;51.498;7.540;2023-12-29T00:11:56;2.13;;;1.02;;
16189;SDS011;41754;51.498;7.540;2023-12-29T00:14:24;5.35;;;1.83;;
16189;SDS011;41754;51.498;7.540;2023-12-29T00:16:54;3.35;;;1.20;;
16189;SDS011;41754;51.498;7.540;2023-12-29T00:19:23;4.70;;;1.30;;
16189;SDS011;41754;51.498;7.540;2023-12-29T00:21:51;2.95;;;1.20;;
16189;SDS011;41754;51.498;7.540;2023-12-29T00:24:19;5.68;;;1.60;;
16189;SDS011;41754;51.498;7.540;2023-12-29T00:26:47;6.10;;;1.65;;
16189;SDS011;41754;51.498;7.540;2023-12-29T00:29:15;4.82;;;1.40;;
16189;SDS011;41754;51.498;7.540;2023-12-29T00:31:42;5.13;;;1.30;;
16189;SDS011;41754;51.498;7.540;2023-12-29T00:34:12;7.05;;;1.60;;
16189;SDS011;41754;51.498;7.540;2023-12-29T00:36:40;5.00;;;1.25;;
16189;SDS011;41754;51.498;7.540;2023-12-29T00:39:07;7.50;;;1.50;;
16189;SDS011;41754;51.498;7.540;2023-12-29T00:41:35;8.02;;;1.77;;
16189;SDS011;41754;51.498;7.540;2023-12-29T00:44:03;2.67;;;1.30;;
16189;SDS011;41754;51.498;7.540;2023-12-29T00:46:31;3.53;;;1.42;;
16189;SDS011;41754;51.498;7.540;2023-12-29T00:49:00;6.25;;;1.50;;
16189;SDS011;41754;51.498;7.540;2023-12-29T00:51:29;4.53;;;1.30;;
16189;SDS011;41754;51.498;7.540;2023-12-29T00:53:57;4.28;;;1.63;;
16189;SDS011;41754;51.498;7.540;2023-12-29T00:56:25;1.98;;;1.10;;
16189;SDS011;41754;51.498;7.540;2023-12-29T00:58:53;5.22;;;1.50;;
16189;SDS011;41754;51.498;7.540;2023-12-29T01:01:20;3.60;;;1.00;;
16189;SDS011;41754;51.498;7.540;2023-12-29T01:03:48;5.30;;;1.20;;
16189;SDS011;41754;51.498;7.540;2023-12-29T01:06:16;3.90;;;1.60;;
16189;SDS011;41754;51.498;7.540;2023-12-29T01:08:45;5.18;;;1.00;;
16189;SDS011;41754;51.498;7.540;2023-12-29T01:11:13;3.13;;;1.20;;
16189;SDS011;41754;51.498;7.540;2023-12-29T01:13:41;4.75;;;1.30;;
16189;SDS011;41754;51.498;7.540;2023-12-29T01:16:09;4.72;;;1.05;;
16189;SDS011;41754;51.498;7.540;2023-12-29T01:18:37;5.25;;;1.40;;
16189;SDS011;41754;51.498;7.540;2023-12-29T01:21:05;4.55;;;1.17;;
16189;SDS011;41754;51.498;7.540;2023-12-29T01:23:33;4.72;;;1.40;;
16189;SDS011;41754;51.498;7.540;2023-12-29T01:26:02;2.65;;;1.17;;
16189;SDS011;41754;51.498;7.540;2023-12-29T01:28:30;4.07;;;1.50;;
16189;SDS011;41754;51.498;7.540;2023-12-29T01:30:58;2.88;;;1.08;;
16189;SDS011;41754;51.498;7.540;2023-12-29T01:33:26;4.10;;;1.38;;
16189;SDS011;41754;51.498;7.540;2023-12-29T01:35:54;4.75;;;1.52;;
16189;SDS011;41754;51.498;7.540;2023-12-29T01:38:23;3.47;;;1.73;;
16189;SDS011;41754;51.498;7.540;2023-12-29T01:40:51;5.65;;;1.30;;
16189;SDS011;41754;51.498;7.540;2023-12-29T01:43:20;4.35;;;1.50;;
16189;SDS011;41754;51.498;7.540;2023-12-29T01:45:47;7.30;;;1.45;;
16189;SDS011;41754;51.498;7.540;2023-12-29T01:48:23;5.25;;;1.52;;
16189;SDS011;41754;51.498;7.540;2023-12-29T01:50:52;3.70;;;1.00;;
16189;SDS011;41754;51.498;7.540;2023-12-29T01:53:21;3.13;;;1.27;;
16189;SDS011;41754;51.498;7.540;2023-12-29T01:56:04;7.10;;;2.08;;
16189;SDS011;41754;51.498;7.540;2023-12-29T01:58:35;2.88;;;1.25;;
16189;SDS011;41754;51.498;7.540;2023-12-29T02:01:04;3.17;;;1.08;;
16189;SDS011;41754;51.498;7.540;2023-12-29T02:03:34;2.15;;;1.00;;
16189;SDS011;41754;51.498;7.540;2023-12-29T02:06:02;4.15;;;1.20;;
16189;SDS011;41754;51.498;7.540;2023-12-29T02:08:32;4.68;;;1.48;;
16189;SDS011;41754;51.498;7.540;2023-12-29T02:11:00;5.68;;;1.55;;
16189;SDS011;41754;51.498;7.540;2023-12-29T02:13:28;5.28;;;1.40;;
16189;SDS011;41754;51.498;7.540;2023-12-29T02:16:00;6.43;;;1.30;;
16189;SDS011;41754;51.498;7.540;2023-12-29T02:18:32;5.78;;;1.48;;
16189;SDS011;41754;51.498;7.540;2023-12-29T02:21:02;6.47;;;1.60;;
16189;SDS011;41754;51.498;7.540;2023-12-29T02:23:30;5.43;;;1.70;;
16189;SDS011;41754;51.498;7.540;2023-12-29T02:26:02;6.93;;;1.95;;
16189;SDS011;41754;51.498;7.540;2023-12-29T02:28:37;5.93;;;1.75;;
16189;SDS011;41754;51.498;7.540;2023-12-29T02:31:13;5.32;;;1.40;;
16189;SDS011;41754;51.498;7.540;2023-12-29T02:33:44;6.60;;;1.80;;
16189;SDS011;41754;51.498;7.540;2023-12-29T02:36:15;5.80;;;1.70;;
16189;SDS011;41754;51.498;7.540;2023-12-29T02:38:44;7.38;;;1.58;;
16189;SDS011;41754;51.498;7.540;2023-12-29T02:41:13;5.47;;;1.67;;
16189;SDS011;41754;51.498;7.540;2023-12-29T02:43:41;7.45;;;2.10;;
16189;SDS011;41754;51.498;7.540;2023-12-29T02:46:09;6.70;;;1.95;;
16189;SDS011;41754;51.498;7.540;2023-12-29T02:48:37;7.95;;;1.75;;
16189;SDS011;41754;51.498;7.540;2023-12-29T02:51:06;10.45;;;2.10;;
16189;SDS011;41754;51.498;7.540;2023-12-29T02:53:34;5.93;;;1.75;;
16189;SDS011;41754;51.498;7.540;2023-12-29T02:56:02;5.05;;;1.50;;
16189;SDS011;41754;51.498;7.540;2023-12-29T02:58:32;5.53;;;1.83;;
16189;SDS011;41754;51.498;7.540;2023-12-29T03:00:59;5.07;;;1.88;;
16189;SDS011;41754;51.498;7.540;2023-12-29T03:03:27;3.78;;;1.50;;
16189;SDS011;41754;51.498;7.540;2023-12-29T03:05:55;6.70;;;1.63;;
16189;SDS011;41754;51.498;7.540;2023-12-29T03:08:23;6.30;;;2.17;;
16189;SDS011;41754;51.498;7.540;2023-12-29T03:10:51;4.53;;;1.88;;
16189;SDS011;41754;51.498;7.540;2023-12-29T03:13:19;4.75;;;1.80;;
16189;SDS011;41754;51.498;7.540;2023-12-29T03:15:48;6.37;;;2.03;;
16189;SDS011;41754;51.498;7.540;2023-12-29T03:18:16;9.50;;;2.42;;
16189;SDS011;41754;51.498;7.540;2023-12-29T03:20:44;8.45;;;1.88;;
16189;SDS011;41754;51.498;7.540;2023-12-29T03:23:12;6.25;;;2.28;;
16189;SDS011;41754;51.498;7.540;2023-12-29T03:25:40;4.40;;;1.83;;
16189;SDS011;41754;51.498;7.540;2023-12-29T03:28:08;6.65;;;2.00;;
16189;SDS011;41754;51.498;7.540;2023-12-29T03:30:36;4.28;;;1.90;;
16189;SDS011;41754;51.498;7.540;2023-12-29T03:33:05;4.93;;;2.20;;
16189;SDS011;41754;51.498;7.540;2023-12-29T03:35:33;5.77;;;2.00;;
16189;SDS011;41754;51.498;7.540;2023-12-29T03:38:01;7.07;;;1.92;;
16189;SDS011;41754;51.498;7.540;2023-12-29T03:40:29;7.95;;;2.00;;
16189;SDS011;41754;51.498;7.540;2023-12-29T03:42:57;5.07;;;1.80;;
16189;SDS011;41754;51.498;7.540;2023-12-29T03:45:25;6.53;;;1.70;;
16189;SDS011;41754;51.498;7.540;2023-12-29T03:47:52;5.85;;;2.08;;
16189;SDS011;41754;51.498;7.540;2023-12-29T03:50:22;5.00;;;1.75;;
16189;SDS011;41754;51.498;7.540;2023-12-29T03:52:49;8.05;;;2.20;;
16189;SDS011;41754;51.498;7.540;2023-12-29T03:55:17;5.32;;;1.60;;
16189;SDS011;41754;51.498;7.540;2023-12-29T03:57:45;7.20;;;1.83;;
16189;SDS011;41754;51.498;7.540;2023-12-29T04:00:14;6.47;;;2.17;;
16189;SDS011;41754;51.498;7.540;2023-12-29T04:02:42;7.78;;;1.65;;
16189;SDS011;41754;51.498;7.540;2023-12-29T04:05:11;5.07;;;1.48;;
16189;SDS011;41754;51.498;7.540;2023-12-29T04:07:40;4.65;;;1.70;;
16189;SDS011;41754;51.498;7.540;2023-12-29T04:10:08;8.93;;;1.95;;
16189;SDS011;41754;51.498;7.540;2023-12-29T04:12:36;6.95;;;1.73;;
16189;SDS011;41754;51.498;7.540;2023-12-29T04:15:06;6.60;;;1.70;;
16189;SDS011;41754;51.498;7.540;2023-12-29T04:17:34;5.85;;;2.00;;
16189;SDS011;41754;51.498;7.540;2023-12-29T04:20:02;5.20;;;1.60;;
16189;SDS011;41754;51.498;7.540;2023-12-29T04:22:31;5.40;;;1.88;;
16189;SDS011;41754;51.498;7.540;2023-12-29T04:25:02;6.78;;;1.83;;
16189;SDS011;41754;51.498;7.540;2023-12-29T04:27:30;4.30;;;1.33;;
16189;SDS011;41754;51.498;7.540;2023-12-29T04:29:58;5.50;;;1.63;;
16189;SDS011;41754;51.498;7.540;2023-12-29T04:32:25;6.53;;;1.92;;
16189;SDS011;41754;51.498;7.540;2023-12-29T04:34:53;4.03;;;1.70;;
16189;SDS011;41754;51.498;7.540;2023-12-29T04:37:21;4.93;;;1.73;;
16189;SDS011;41754;51.498;7.540;2023-12-29T04:39:49;6.65;;;1.67;;
16189;SDS011;41754;51.498;7.540;2023-12-29T04:42:18;6.90;;;1.77;;
16189;SDS011;41754;51.498;7.540;2023-12-29T04:44:46;3.95;;;1.58;;
16189;SDS011;41754;51.498;7.540;2023-12-29T04:47:13;6.68;;;1.80;;
16189;SDS011;41754;51.498;7.540;2023-12-29T04:49:43;4.03;;;1.25;;
16189;SDS011;41754;51.498;7.540;2023-12-29T04:52:11;5.10;;;1.60;;
16189;SDS011;41754;51.498;7.540;2023-12-29T04:54:38;6.70;;;1.88;;
16189;SDS011;41754;51.498;7.540;2023-12-29T04:57:06;4.72;;;1.55;;
16189;SDS011;41754;51.498;7.540;2023-12-29T04:59:35;5.10;;;1.50;;
16189;SDS011;41754;51.498;7.540;2023-12-29T05:02:03;6.43;;;1.27;;
16189;SDS011;41754;51.498;7.540;2023-12-29T05:04:31;7.88;;;1.75;;
16189;SDS011;41754;51.498;7.540;2023-12-29T05:06:59;5.38;;;1.42;;
16189;SDS011;41754;51.498;7.540;2023-12-29T05:09:27;4.43;;;1.33;;
16189;SDS011;41754;51.498;7.540;2023-12-29T05:11:55;3.33;;;1.33;;
16189;SDS011;41754;51.498;7.540;2023-12-29T05:14:23;4.55;;;1.50;;
16189;SDS011;41754;51.498;7.540;2023-12-29T05:16:52;6.85;;;1.75;;
16189;SDS011;41754;51.498;7.540;2023-12-29T05:19:20;5.55;;;1.60;;
16189;SDS011;41754;51.498;7.540;2023-12-29T05:21:48;8.45;;;1.95;;
16189;SDS011;41754;51.498;7.540;2023-12-29T05:24:18;6.80;;;1.67;;
16189;SDS011;41754;51.498;7.540;2023-12-29T05:26:46;5.85;;;1.70;;
16189;SDS011;41754;51.498;7.540;2023-12-29T05:29:13;4.75;;;1.90;;
16189;SDS011;41754;51.498;7.540;2023-12-29T05:31:41;6.35;;;2.85;;
16189;SDS011;41754;51.498;7.540;2023-12-29T05:34:10;6.55;;;2.00;;
16189;SDS011;41754;51.498;7.540;2023-12-29T05:36:38;6.80;;;1.88;;
16189;SDS011;41754;51.498;7.540;2023-12-29T05:39:06;4.93;;;1.88;;
16189;SDS011;41754;51.498;7.540;2023-12-29T05:41:34;11.05;;;2.10;;
16189;SDS011;41754;51.498;7.540;2023-12-29T05:44:02;5.82;;;1.67;;
16189;SDS011;41754;51.498;7.540;2023-12-29T05:46:30;7.57;;;1.90;;
16189;SDS011;41754;51.498;7.540;2023-12-29T05:48:58;5.03;;;1.45;;
16189;SDS011;41754;51.498;7.540;2023-12-29T05:51:27;5.45;;;1.63;;
16189;SDS011;41754;51.498;7.540;2023-12-29T05:53:55;6.80;;;1.65;;
16189;SDS011;41754;51.498;7.540;2023-12-29T05:56:23;8.52;;;1.58;;
16189;SDS011;41754;51.498;7.540;2023-12-29T05:58:52;6.30;;;1.75;;
16189;SDS011;41754;51.498;7.540;2023-12-29T06:01:19;6.70;;;1.77;;
16189;SDS011;41754;51.498;7.540;2023-12-29T06:03:47;6.57;;;1.65;;
16189;SDS011;41754;51.498;7.540;2023-12-29T06:06:15;7.40;;;1.73;;
16189;SDS011;41754;51.498;7.540;2023-12-29T06:08:45;6.93;;;1.48;;
16189;SDS011;41754;51.498;7.540;2023-12-29T06:11:14;7.05;;;1.67;;
16189;SDS011;41754;51.498;7.540;2023-12-29T06:13:43;7.03;;;2.30;;
16189;SDS011;41754;51.498;7.540;2023-12-29T06:16:16;6.95;;;2.10;;
16189;SDS011;41754;51.498;7.540;2023-12-29T06:18:45;8.77;;;1.50;;
16189;SDS011;41754;51.498;7.540;2023-12-29T06:21:13;8.65;;;1.98;;
16189;SDS011;41754;51.498;7.540;2023-12-29T06:23:41;5.43;;;1.58;;
16189;SDS011;41754;51.498;7.540;2023-12-29T06:26:16;7.35;;;2.05;;
16189;SDS011;41754;51.498;7.540;2023-12-29T06:28:44;4.88;;;1.40;;
16189;SDS011;41754;51.498;7.540;2023-12-29T06:31:12;5.38;;;1.50;;
16189;SDS011;41754;51.498;7.540;2023-12-29T06:33:41;7.97;;;2.20;;
16189;SDS011;41754;51.498;7.540;2023-12-29T06:36:10;6.82;;;1.95;;
16189;SDS011;41754;51.498;7.540;2023-12-29T06:38:38;7.35;;;1.60;;
16189;SDS011;41754;51.498;7.540;2023-12-29T06:41:06;6.20;;;1.60;;
16189;SDS011;41754;51.498;7.540;2023-12-29T06:43:36;6.13;;;1.63;;
16189;SDS011;41754;51.498;7.540;2023-12-29T06:46:04;6.80;;;1.98;;
16189;SDS011;41754;51.498;7.540;2023-12-29T06:48:32;5.90;;;1.50;;
16189;SDS011;41754;51.498;7.540;2023-12-29T06:51:01;8.98;;;2.22;;
16189;SDS011;41754;51.498;7.540;2023-12-29T06:53:29;6.53;;;2.03;;
16189;SDS011;41754;51.498;7.540;2023-12-29T06:55:57;5.53;;;1.77;;
16189;SDS011;41754;51.498;7.540;2023-12-29T06:58:24;6.72;;;1.90;;
16189;SDS011;41754;51.498;7.540;2023-12-29T07:00:54;7.63;;;1.55;;
16189;SDS011;41754;51.498;7.540;2023-12-29T07:03:22;5.93;;;1.52;;
16189;SDS011;41754;51.498;7.540;2023-12-29T07:05:50;6.85;;;1.40;;
16189;SDS011;41754;51.498;7.540;2023-12-29T07:08:18;4.57;;;1.50;;
16189;SDS011;41754;51.498;7.540;2023-12-29T07:10:46;2.20;;;1.20;;
16189;SDS011;41754;51.498;7.540;2023-12-29T07:13:16;5.97;;;1.60;;
16189;SDS011;41754;51.498;7.540;2023-12-29T07:15:46;7.55;;;1.55;;
16189;SDS011;41754;51.498;7.540;2023-12-29T07:18:15;4.68;;;1.67;;
16189;SDS011;41754;51.498;7.540;2023-12-29T07:20:43;5.20;;;1.70;;
16189;SDS011;41754;51.498;7.540;2023-12-29T07:23:11;7.57;;;1.90;;
16189;SDS011;41754;51.498;7.540;2023-12-29T07:25:39;5.63;;;1.67;;
16189;SDS011;41754;51.498;7.540;2023-12-29T07:28:07;5.90;;;1.77;;
16189;SDS011;41754;51.498;7.540;2023-12-29T07:30:35;4.75;;;1.65;;
16189;SDS011;41754;51.498;7.540;2023-12-29T07:33:03;3.97;;;1.10;;
16189;SDS011;41754;51.498;7.540;2023-12-29T07:35:33;4.35;;;1.33;;
16189;SDS011;41754;51.498;7.540;2023-12-29T07:38:01;5.88;;;1.70;;
16189;SDS011;41754;51.498;7.540;2023-12-29T07:40:28;7.28;;;1.73;;
16189;SDS011;41754;51.498;7.540;2023-12-29T07:42:56;5.38;;;1.58;;
16189;SDS011;41754;51.498;7.540;2023-12-29T07:45:24;8.45;;;1.80;;
16189;SDS011;41754;51.498;7.540;2023-12-29T07:47:52;4.80;;;1.50;;
16189;SDS011;41754;51.498;7.540;2023-12-29T07:50:20;4.93;;;1.70;;
16189;SDS011;41754;51.498;7.540;2023-12-29T07:52:50;5.95;;;1.85;;
16189;SDS011;41754;51.498;7.540;2023-12-29T07:55:18;5.50;;;1.85;;
16189;SDS011;41754;51.498;7.540;2023-12-29T07:57:45;8.85;;;1.40;;
16189;SDS011;41754;51.498;7.540;2023-12-29T08:00:14;6.90;;;1.75;;
16189;SDS011;41754;51.498;7.540;2023-12-29T08:02:43;8.60;;;2.00;;
16189;SDS011;41754;51.498;7.540;2023-12-29T08:05:11;6.07;;;1.45;;
16189;SDS011;41754;51.498;7.540;2023-12-29T08:07:41;8.65;;;1.85;;
16189;SDS011;41754;51.498;7.540;2023-12-29T08:10:10;6.72;;;1.75;;
16189;SDS011;41754;51.498;7.540;2023-12-29T08:12:38;7.78;;;2.50;;
16189;SDS011;41754;51.498;7.540;2023-12-29T08:15:06;5.75;;;1.95;;
16189;SDS011;41754;51.498;7.540;2023-12-29T08:17:34;6.53;;;1.50;;
16189;SDS011;41754;51.498;7.540;2023-12-29T08:20:02;7.55;;;2.00;;
16189;SDS011;41754;51.498;7.540;2023-12-29T08:22:30;5.88;;;1.88;;
16189;SDS011;41754;51.498;7.540;2023-12-29T08:24:59;6.95;;;1.73;;
16189;SDS011;41754;51.498;7.540;2023-12-29T08:27:28;6.93;;;1.88;;
16189;SDS011;41754;51.498;7.540;2023-12-29T08:29:56;5.22;;;1.58;;
16189;SDS011;41754;51.498;7.540;2023-12-29T08:32:23;4.30;;;1.58;;
16189;SDS011;41754;51.498;7.540;2023-12-29T08:34:51;5.85;;;1.75;;
16189;SDS011;41754;51.498;7.540;2023-12-29T08:37:19;5.28;;;1.63;;
16189;SDS011;41754;51.498;7.540;2023-12-29T08:39:47;10.43;;;2.03;;
16189;SDS011;41754;51.498;7.540;2023-12-29T08:42:15;9.85;;;1.90;;
16189;SDS011;41754;51.498;7.540;2023-12-29T08:44:44;7.45;;;1.73;;
16189;SDS011;41754;51.498;7.540;2023-12-29T08:47:12;4.55;;;1.67;;
16189;SDS011;41754;51.498;7.540;2023-12-29T08:49:40;5.68;;;1.40;;
16189;SDS011;41754;51.498;7.540;2023-12-29T08:52:08;4.50;;;1.48;;
16189;SDS011;41754;51.498;7.540;2023-12-29T08:54:36;3.40;;;1.35;;
16189;SDS011;41754;51.498;7.540;2023-12-29T08:57:04;5.45;;;1.23;;
16189;SDS011;41754;51.498;7.540;2023-12-29T08:59:33;2.78;;;1.35;;
16189;SDS011;41754;51.498;7.540;2023-12-29T09:02:02;4.95;;;1.33;;
16189;SDS011;41754;51.498;7.540;2023-12-29T09:04:30;4.03;;;1.65;;
16189;SDS011;41754;51.498;7.540;2023-12-29T09:06:58;6.85;;;1.52;;
16189;SDS011;41754;51.498;7.540;2023-12-29T09:09:26;2.10;;;1.00;;
16189;SDS011;41754;51.498;7.540;2023-12-29T09:11:53;2.67;;;1.20;;
16189;SDS011;41754;51.498;7.540;2023-12-29T09:14:21;2.88;;;1.05;;
16189;SDS011;41754;51.498;7.540;2023-12-29T09:16:49;5.00;;;1.67;;
16189;SDS011;41754;51.498;7.540;2023-12-29T09:19:18;4.97;;;1.15;;
16189;SDS011;41754;51.498;7.540;2023-12-29T09:22:01;1.30;;;1.20;;
16189;SDS011;41754;51.498;7.540;2023-12-29T09:24:29;3.85;;;1.30;;
16189;SDS011;41754;51.498;7.540;2023-12-29T09:26:57;4.85;;;1.17;;
16189;SDS011;41754;51.498;7.540;2023-12-29T09:29:25;2.85;;;1.23;;
16189;SDS011;41754;51.498;7.540;2023-12-29T09:31:52;2.35;;;0.82;;
16189;SDS011;41754;51.498;7.540;2023-12-29T09:34:22;2.20;;;1.13;;
16189;SDS011;41754;51.498;7.540;2023-12-29T09:36:50;2.00;;;0.50;;
16189;SDS011;41754;51.498;7.540;2023-12-29T09:39:17;2.78;;;1.25;;
16189;SDS011;41754;51.498;7.540;2023-12-29T09:41:46;2.08;;;0.65;;
16189;SDS011;41754;51.498;7.540;2023-12-29T09:44:14;1.25;;;0.52;;
16189;SDS011;41754;51.498;7.540;2023-12-29T09:46:42;2.53;;;0.80;;
16189;SDS011;41754;51.498;7.540;2023-12-29T09:49:10;3.60;;;0.63;;
16189;SDS011;41754;51.498;7.540;2023-12-29T09:51:42;1.60;;;0.75;;
16189;SDS011;41754;51.498;7.540;2023-12-29T09:54:11;1.17;;;0.80;;
16189;SDS011;41754;51.498;7.540;2023-12-29T09:56:40;1.75;;;0.90;;
16189;SDS011;41754;51.498;7.540;2023-12-29T09:59:08;1.65;;;0.70;;
16189;SDS011;41754;51.498;7.540;2023-12-29T10:01:38;1.30;;;0.60;;
16189;SDS011;41754;51.498;7.540;2023-12-29T10:04:08;1.08;;;0.40;;
16189;SDS011;41754;51.498;7.540;2023-12-29T10:06:36;2.10;;;0.52;;
16189;SDS011;41754;51.498;7.540;2023-12-29T10:09:10;2.47;;;0.60;;
16189;SDS011;41754;51.498;7.540;2023-12-29T10:11:40;1.02;;;0.43;;
16189;SDS011;41754;51.498;7.540;2023-12-29T10:14:17;1.77;;;0.50;;
16189;SDS011;41754;51.498;7.540;2023-12-29T10:16:50;0.77;;;0.45;;
16189;SDS011;41754;51.498;7.540;2023-12-29T10:19:25;1.50;;;0.40;;
16189;SDS011;41754;51.498;7.540;2023-12-29T10:21:59;0.55;;;0.50;;
16189;SDS011;41754;51.498;7.540;2023-12-29T10:24:35;0.85;;;0.50;;
16189;SDS011;41754;51.498;7.540;2023-12-29T10:27:04;1.20;;;0.50;;
16189;SDS011;41754;51.498;7.540;2023-12-29T10:29:32;0.77;;;0.38;;
16189;SDS011;41754;51.498;7.540;2023-12-29T10:32:01;2.63;;;0.50;;
16189;SDS011;41754;51.498;7.540;2023-12-29T10:34:29;0.93;;;0.47;;
16189;SDS011;41754;51.498;7.540;2023-12-29T10:36:58;1.13;;;0.40;;
16189;SDS011;41754;51.498;7.540;2023-12-29T10:39:27;0.93;;;0.35;;
16189;SDS011;41754;51.498;7.540;2023-12-29T10:42:03;2.92;;;0.43;;
16189;SDS011;41754;51.498;7.540;2023-12-29T10:44:33;0.77;;;0.22;;
16189;SDS011;41754;51.498;7.540;2023-12-29T10:47:07;1.40;;;0.32;;
16189;SDS011;41754;51.498;7.540;2023-12-29T10:49:35;1.33;;;0.40;;
16189;SDS011;41754;51.498;7.540;2023-12-29T10:52:10;0.20;;;0.20;;
16189;SDS011;41754;51.498;7.540;2023-12-29T10:54:40;0.38;;;0.30;;
16189;SDS011;41754;51.498;7.540;2023-12-29T10:57:11;0.30;;;0.30;;
16189;SDS011;41754;51.498;7.540;2023-12-29T10:59:39;0.90;;;0.32;;
16189;SDS011;41754;51.498;7.540;2023-12-29T11:02:10;2.33;;;0.60;;
16189;SDS011;41754;51.498;7.540;2023-12-29T11:04:41;1.02;;;0.45;;
16189;SDS011;41754;51.498;7.540;2023-12-29T11:07:09;0.65;;;0.30;;
16189;SDS011;41754;51.498;7.540;2023-12-29T11:09:39;0.52;;;0.20;;
16189;SDS011;41754;51.498;7.540;2023-12-29T11:12:08;0.60;;;0.60;;
16189;SDS011;41754;51.498;7.540;2023-12-29T11:14:40;0.65;;;0.50;;
16189;SDS011;41754;51.498;7.540;2023-12-29T11:17:12;1.40;;;0.40;;
16189;SDS011;41754;51.498;7.540;2023-12-29T11:19:42;1.27;;;0.55;;
16189;SDS011;41754;51.498;7.540;2023-12-29T11:22:13;2.38;;;0.45;;
16189;SDS011;41754;51.498;7.540;2023-12-29T11:24:45;0.68;;;0.40;;
16189;SDS011;41754;51.498;7.540;2023-12-29T11:27:15;1.05;;;0.73;;
16189;SDS011;41754;51.498;7.540;2023-12-29T11:29:43;0.90;;;0.50;;
16189;SDS011;41754;51.498;7.540;2023-12-29T11:32:15;0.90;;;0.40;;
16189;SDS011;41754;51.498;7.540;2023-12-29T11:34:49;0.57;;;0.40;;
16189;SDS011;41754;51.498;7.540;2023-12-29T11:37:23;1.58;;;0.52;;
16189;SDS011;41754;51.498;7.540;2023-12-29T11:40:01;2.60;;;0.50;;
16189;SDS011;41754;51.498;7.540;2023-12-29T11:42:40;0.47;;;0.43;;
16189;SDS011;41754;51.498;7.540;2023-12-29T11:47:58;1.25;;;0.70;;
16189;SDS011;41754;51.498;7.540;2023-12-29T11:50:29;1.63;;;0.57;;
16189;SDS011;41754;51.498;7.540;2023-12-29T11:52:58;1.45;;;0.70;;
16189;SDS011;41754;51.498;7.540;2023-12-29T11:55:28;1.38;;;0.80;;
16189;SDS011;41754;51.498;7.540;2023-12-29T11:57:58;2.50;;;0.88;;
16189;SDS011;41754;51.498;7.540;2023-12-29T12:00:42;3.75;;;0.98;;
16189;SDS011;41754;51.498;7.540;2023-12-29T12:03:16;0.80;;;0.80;;
16189;SDS011;41754;51.498;7.540;2023-12-29T12:05:46;1.75;;;0.77;;
16189;SDS011;41754;51.498;7.540;2023-12-29T12:08:27;3.53;;;0.88;;
16189;SDS011;41754;51.498;7.540;2023-12-29T12:10:56;3.17;;;0.90;;
16189;SDS011;41754;51.498;7.540;2023-12-29T12:19:25;3.38;;;0.70;;
16189;SDS011;41754;51.498;7.540;2023-12-29T12:21:55;1.90;;;0.70;;
16189;SDS011;41754;51.498;7.540;2023-12-29T12:24:25;4.85;;;1.00;;
16189;SDS011;41754;51.498;7.540;2023-12-29T12:26:54;3.00;;;0.70;;
16189;SDS011;41754;51.498;7.540;2023-12-29T12:29:24;3.22;;;1.20;;
16189;SDS011;41754;51.498;7.540;2023-12-29T12:31:53;2.10;;;0.68;;
16189;SDS011;41754;51.498;7.540;2023-12-29T12:34:21;1.38;;;0.60;;
16189;SDS011;41754;51.498;7.540;2023-12-29T12:36:51;3.58;;;0.88;;
16189;SDS011;41754;51.498;7.540;2023-12-29T12:39:22;1.88;;;0.60;;
16189;SDS011;41754;51.498;7.540;2023-12-29T12:41:51;3.47;;;1.08;;
16189;SDS011;41754;51.498;7.540;2023-12-29T12:44:18;4.07;;;1.10;;
16189;SDS011;41754;51.498;7.540;2023-12-29T12:46:50;1.58;;;0.80;;
16189;SDS011;41754;51.498;7.540;2023-12-29T12:49:19;1.83;;;0.85;;
16189;SDS011;41754;51.498;7.540;2023-12-29T12:51:48;3.30;;;1.20;;
16189;SDS011;41754;51.498;7.540;2023-12-29T12:54:17;1.58;;;0.88;;
16189;SDS011;41754;51.498;7.540;2023-12-29T12:56:46;1.80;;;0.90;;
16189;SDS011;41754;51.498;7.540;2023-12-29T12:59:15;5.90;;;0.90;;
16189;SDS011;41754;51.498;7.540;2023-12-29T13:01:43;4.07;;;1.20;;
16189;SDS011;41754;51.498;7.540;2023-12-29T13:04:13;5.43;;;1.50;;
16189;SDS011;41754;51.498;7.540;2023-12-29T13:06:42;4.57;;;1.70;;
16189;SDS011;41754;51.498;7.540;2023-12-29T13:09:14;8.55;;;1.17;;
16189;SDS011;41754;51.498;7.540;2023-12-29T13:11:45;1.95;;;1.08;;
16189;SDS011;41754;51.498;7.540;2023-12-29T13:14:20;4.22;;;1.15;;
16189;SDS011;41754;51.498;7.540;2023-12-29T13:16:49;1.73;;;0.85;;
16189;SDS011;41754;51.498;7.540;2023-12-29T13:19:18;6.10;;;1.50;;
16189;SDS011;41754;51.498;7.540;2023-12-29T13:21:48;3.90;;;0.80;;
16189;SDS011;41754;51.498;7.540;2023-12-29T13:24:17;2.53;;;0.77;;
16189;SDS011;41754;51.498;7.540;2023-12-29T13:26:45;3.83;;;1.00;;
16189;SDS011;41754;51.498;7.540;2023-12-29T13:29:18;2.97;;;0.90;;
16189;SDS011;41754;51.498;7.540;2023-12-29T13:31:48;1.90;;;1.00;;
16189;SDS011;41754;51.498;7.540;2023-12-29T13:34:19;3.33;;;1.02;;
16189;SDS011;41754;51.498;7.540;2023-12-29T13:36:51;3.00;;;0.93;;
16189;SDS011;41754;51.498;7.540;2023-12-29T13:39:28;3.72;;;1.17;;
16189;SDS011;41754;51.498;7.540;2023-12-29T13:41:59;2.92;;;1.13;;
16189;SDS011;41754;51.498;7.540;2023-12-29T13:44:29;3.65;;;1.02;;
16189;SDS011;41754;51.498;7.540;2023-12-29T13:46:59;2.17;;;1.20;;
16189;SDS011;41754;51.498;7.540;2023-12-29T13:49:29;3.83;;;1.10;;
16189;SDS011;41754;51.498;7.540;2023-12-29T13:52:01;3.33;;;1.20;;
16189;SDS011;41754;51.498;7.540;2023-12-29T13:54:30;2.63;;;1.35;;
16189;SDS011;41754;51.498;7.540;2023-12-29T13:57:07;2.85;;;1.08;;
16189;SDS011;41754;51.498;7.540;2023-12-29T13:59:35;3.42;;;1.38;;
16189;SDS011;41754;51.498;7.540;2023-12-29T14:02:04;2.00;;;1.35;;
16189;SDS011;41754;51.498;7.540;2023-12-29T14:04:48;3.13;;;1.20;;
16189;SDS011;41754;51.498;7.540;2023-12-29T14:07:16;2.17;;;1.13;;
16189;SDS011;41754;51.498;7.540;2023-12-29T14:09:47;13.40;;;5.78;;
16189;SDS011;41754;51.498;7.540;2023-12-29T14:12:23;2.13;;;0.85;;
16189;SDS011;41754;51.498;7.540;2023-12-29T14:14:52;1.95;;;1.10;;
16189;SDS011;41754;51.498;7.540;2023-12-29T14:17:20;1.95;;;1.00;;
16189;SDS011;41754;51.498;7.540;2023-12-29T14:19:50;3.83;;;1.55;;
16189;SDS011;41754;51.498;7.540;2023-12-29T14:22:21;1.77;;;0.90;;
16189;SDS011;41754;51.498;7.540;2023-12-29T14:24:58;4.50;;;1.35;;
16189;SDS011;41754;51.498;7.540;2023-12-29T14:27:28;3.58;;;1.10;;
16189;SDS011;41754;51.498;7.540;2023-12-29T14:29:56;3.08;;;1.15;;
16189;SDS011;41754;51.498;7.540;2023-12-29T14:32:26;3.42;;;1.13;;
16189;SDS011;41754;51.498;7.540;2023-12-29T14:34:56;2.58;;;1.20;;
16189;SDS011;41754;51.498;7.540;2023-12-29T14:37:24;3.38;;;1.25;;
16189;SDS011;41754;51.498;7.540;2023-12-29T14:39:52;3.75;;;1.35;;
16189;SDS011;41754;51.498;7.540;2023-12-29T14:42:21;4.63;;;1.05;;
16189;SDS011;41754;51.498;7.540;2023-12-29T14:44:49;2.25;;;1.08;;
16189;SDS011;41754;51.498;7.540;2023-12-29T14:47:16;2.75;;;1.13;;
16189;SDS011;41754;51.498;7.540;2023-12-29T14:49:44;1.83;;;0.85;;
16189;SDS011;41754;51.498;7.540;2023-12-29T14:52:14;4.18;;;1.23;;
16189;SDS011;41754;51.498;7.540;2023-12-29T14:54:41;3.28;;;1.45;;
16189;SDS011;41754;51.498;7.540;2023-12-29T14:57:09;2.53;;;0.77;;
16189;SDS011;41754;51.498;7.540;2023-12-29T14:59:43;3.72;;;1.10;;
16189;SDS011;41754;51.498;7.540;2023-12-29T15:02:11;2.75;;;1.02;;
16189;SDS011;41754;51.498;7.540;2023-12-29T15:04:39;1.15;;;0.73;;
16189;SDS011;41754;51.498;7.540;2023-12-29T15:07:07;3.28;;;1.20;;
16189;SDS011;41754;51.498;7.540;2023-12-29T15:09:36;2.55;;;1.08;;